Skip Navigation Links
NOAA logo - Click to go to the NOAA homepage
NOAA's National Weather Service
Alaska Aviation Weather Unit
  NWS logo - Click to go to the NWS homepage
Left Navbar Graphic     18 AKDT = 02 GMT

   
NOAA is celebrating 200 years of science, service, and stewardship. Visit the NOAA 200th celebration Web site to learn more.
USA.gov is the U.S. Government's official Web portal to all Federal, state and local government Web resources and services.
Facebook
NWS on Facebook

Important Change Regarding the AAWU Web Presence

 

Over the last several months, the AAWU has been working to navigate its webpages to a nationally supported server. Security, as well as other needs, have necessitated the change.  In the process, we have made an effort to enhance the functionality of our website, as well as some of our products. As of June 20, 2017, aawu.arh.noaa.gov will be discontinued. The new AAWU web address is weather.gov/aawu. It is now live and will run in-parallel with the old site until it is discontinued. Please send any feedback or questions regarding the new webpages to nws.ar.aawu.webauthors@noaa.gov.  Thank you for your patience during this time of transition.
AAWU Home :: Display TAF Add Bookmark
METAR PAEG 242053Z AUTO 13006G17KT 10SM BKN075 17/00 A2980 RMK AO2
     SLP097 T01670000 56027 TSNO=

METAR PAEG 242153Z AUTO 13009G17KT 100V190 10SM BKN085 17/01 A2977 RMK
     AO2 SLP087 T01720006 TSNO=

METAR PAEG 242253Z AUTO 15009G17KT 10SM OVC080 17/M02 A2977 RMK AO2
     SLP085 T01721017 TSNO=

METAR PAEG 242353Z AUTO 18007G16KT 150V250 10SM OVC075 17/M01 A2974 RMK
     AO2 SLP077 T01721011 10189 20139 56019 TSNO=

METAR PAEG 250053Z AUTO 19006KT 10SM FEW070 BKN090 17/01 A2973 RMK
 AO2 SLP073 T01720006 TSNO=

METAR PAEG 250153Z AUTO VRB03KT 10SM FEW080 SCT120 17/M01 A2971 RMK
 AO2 SLP065 T01721006 TSNO=


NOAA's National Weather Service
Alaska Aviation Weather Unit
6930 Sand Lake Road
Anchorage, AK 99502-1845
Disclaimer
Credits
Glossary
Privacy Policy
About Us
Career Opportunities
Contact AAWU Internet Services Site last modified: April, 17th 2012